Time;durP1;ratioP1;P1;durP2;ratioP2;P2;SDS_P1;SDS_P2;PMS_P1;PMS_P2;Temp;Humidity;BMP_temperature;BMP_pressure;BME280_temperature;BME280_humidity;BME280_pressure;Samples;Min_cycle;Max_cycle;Signal;HPM_P1;HPM_P2
2021/06/18 00:01:05;;;;;;;6.07;4.00;;;29.00;63.90;;;;;;6123776;23;20438;-85
2021/06/18 00:03:33;;;;;;;6.33;5.47;;;28.90;64.20;;;;;;6148441;23;20435;-84
2021/06/18 00:06:05;;;;;;;6.43;4.20;;;28.90;64.40;;;;;;6147984;23;20489;-83
2021/06/18 00:08:49;;;;;;;5.50;5.00;;;29.10;65.60;;;;;;6147570;23;20541;-83
2021/06/18 00:11:41;;;;;;;6.40;5.10;;;28.90;64.80;;;;;;6122512;23;20391;-82
2021/06/18 00:14:22;;;;;;;8.87;5.30;;;28.90;65.10;;;;;;6123367;23;20446;-82
2021/06/18 00:16:56;;;;;;;5.57;5.13;;;29.00;65.80;;;;;;6121260;23;20446;-84
2021/06/18 00:19:32;;;;;;;7.40;5.00;;;29.00;65.50;;;;;;6122911;23;20426;-82
2021/06/18 00:22:05;;;;;;;8.33;5.10;;;29.00;65.50;;;;;;6124247;23;20406;-85
2021/06/18 00:25:37;;;;;;;;;;;;;;;;;;;;;
2021/06/18 00:28:36;;;;;;;7.77;5.50;;;28.90;65.80;;;;;;6153025;23;20425;-84
2021/06/18 00:31:03;;;;;;;6.70;5.57;;;28.70;67.20;;;;;;6152295;23;20893;-83
2021/06/18 00:33:30;;;;;;;5.50;5.00;;;28.60;67.30;;;;;;6153474;23;20859;-84
2021/06/18 00:35:57;;;;;;;6.63;6.03;;;28.60;67.50;;;;;;6164966;23;20444;-85
2021/06/18 00:38:27;;;;;;;5.80;5.27;;;28.70;67.60;;;;;;6167976;23;20661;-83
2021/06/18 00:40:54;;;;;;;7.77;6.10;;;28.80;68.00;;;;;;6140251;23;20419;-84
2021/06/18 00:43:21;;;;;;;7.67;7.07;;;28.90;68.40;;;;;;6136259;23;20447;-83
2021/06/18 00:45:48;;;;;;;6.87;6.23;;;28.90;67.90;;;;;;6150014;23;20431;-83
2021/06/18 00:48:20;;;;;;;6.23;5.57;;;28.90;68.30;;;;;;6148550;23;20438;-86
2021/06/18 00:50:50;;;;;;;8.67;7.30;;;28.80;68.70;;;;;;6126217;23;20470;-84
2021/06/18 00:53:20;;;;;;;11.60;6.17;;;28.80;69.30;;;;;;6151142;23;20758;-84
2021/06/18 00:55:48;;;;;;;8.17;6.23;;;28.60;69.90;;;;;;6150880;23;20402;-85
2021/06/18 00:58:15;;;;;;;7.57;6.87;;;28.50;70.80;;;;;;6149517;23;20438;-84
2021/06/18 01:00:44;;;;;;;7.60;6.40;;;28.30;71.60;;;;;;6151719;23;20415;-85
2021/06/18 01:03:12;;;;;;;9.50;6.30;;;28.20;72.00;;;;;;6149824;23;20419;-83
2021/06/18 01:05:40;;;;;;;10.50;6.30;;;28.20;73.20;;;;;;6148354;23;20515;-84
2021/06/18 01:08:13;;;;;;;8.00;6.23;;;28.30;74.20;;;;;;6121499;23;20565;-83
2021/06/18 01:11:07;;;;;;;9.40;6.70;;;28.10;74.50;;;;;;6127124;23;20439;-85
2021/06/18 01:14:02;;;;;;;7.47;6.63;;;28.10;75.40;;;;;;6140882;23;20458;-85
2021/06/18 01:16:53;;;;;;;8.53;6.60;;;27.90;76.40;;;;;;6139825;23;20433;-83
2021/06/18 01:19:39;;;;;;;11.17;6.70;;;27.90;77.00;;;;;;6164119;23;20407;-83
2021/06/18 01:22:21;;;;;;;8.00;6.53;;;27.90;77.90;;;;;;6154541;23;20438;-83
2021/06/18 01:25:10;;;;;;;7.67;6.97;;;27.90;77.80;;;;;;6150891;23;20395;-84
2021/06/18 01:27:42;;;;;;;7.70;7.00;;;27.90;78.30;;;;;;6163393;23;20441;-84
2021/06/18 01:30:17;;;;;;;8.33;7.07;;;28.20;78.20;;;;;;6164881;23;20453;-83
2021/06/18 01:33:00;;;;;;;9.47;7.57;;;28.00;79.10;;;;;;6167952;23;20419;-82
2021/06/18 01:35:44;;;;;;;7.87;7.23;;;28.10;79.50;;;;;;6142926;23;20423;-84
2021/06/18 01:38:11;;;;;;;8.27;6.13;;;27.90;79.60;;;;;;6166963;23;20474;-82
2021/06/18 01:40:41;;;;;;;7.90;7.10;;;27.90;80.30;;;;;;6127561;23;20423;-84
2021/06/18 01:43:08;;;;;;;8.80;6.80;;;28.00;81.10;;;;;;6152404;23;20923;-83
2021/06/18 01:45:36;;;;;;;12.97;8.23;;;28.10;80.60;;;;;;6149852;23;20411;-83
2021/06/18 01:48:05;;;;;;;7.97;7.07;;;28.10;81.00;;;;;;6150274;23;20446;-84
2021/06/18 01:50:33;;;;;;;8.13;7.20;;;28.10;81.30;;;;;;6123064;23;20547;-84
2021/06/18 01:53:09;;;;;;;7.83;7.10;;;27.90;81.70;;;;;;6122005;23;20410;-83
2021/06/18 01:55:38;;;;;;;8.20;7.40;;;27.80;83.00;;;;;;6148708;23;20437;-85
2021/06/18 01:58:06;;;;;;;9.07;7.43;;;27.80;84.80;;;;;;6147336;23;20954;-85
2021/06/18 02:00:36;;;;;;;8.70;7.03;;;27.70;84.10;;;;;;6122773;23;20498;-82
2021/06/18 02:03:08;;;;;;;11.80;7.50;;;27.60;85.20;;;;;;6148201;23;20403;-84
2021/06/18 02:05:37;;;;;;;7.97;7.00;;;27.60;85.40;;;;;;6122472;23;20839;-84
2021/06/18 02:08:06;;;;;;;8.40;7.60;;;27.50;85.80;;;;;;6149693;23;20573;-84
2021/06/18 02:10:35;;;;;;;9.00;7.90;;;27.50;86.40;;;;;;6149472;23;20449;-85
2021/06/18 02:13:04;;;;;;;10.13;9.07;;;27.60;86.20;;;;;;6150829;23;20421;-85
2021/06/18 02:15:32;;;;;;;8.07;7.20;;;27.60;86.30;;;;;;6124839;23;20418;-84
2021/06/18 02:17:59;;;;;;;11.50;7.90;;;27.60;86.70;;;;;;6149828;23;20423;-83
2021/06/18 02:20:27;;;;;;;7.97;7.17;;;27.40;87.40;;;;;;6157096;23;21001;-84
2021/06/18 02:22:55;;;;;;;9.27;7.77;;;27.40;88.20;;;;;;6153453;23;20417;-86
2021/06/18 02:25:23;;;;;;;11.53;10.37;;;27.40;88.30;;;;;;6148200;23;20446;-83
2021/06/18 02:27:53;;;;;;;12.50;7.60;;;27.30;89.00;;;;;;6147929;23;20431;-84
2021/06/18 02:30:20;;;;;;;8.73;7.83;;;27.30;89.40;;;;;;6150932;23;20430;-77
2021/06/18 02:32:50;;;;;;;9.33;8.33;;;27.30;90.20;;;;;;6123734;23;20457;-84
2021/06/18 02:35:17;;;;;;;9.03;8.30;;;27.40;90.10;;;;;;6151020;23;20756;-83
2021/06/18 02:37:44;;;;;;;10.83;8.37;;;27.30;90.20;;;;;;6152884;23;20438;-80
2021/06/18 02:40:11;;;;;;;9.00;8.20;;;27.20;90.10;;;;;;6128107;23;20449;-81
2021/06/18 02:42:38;;;;;;;9.43;8.43;;;27.20;90.10;;;;;;6150348;23;20411;-83
2021/06/18 02:45:05;;;;;;;9.57;8.67;;;27.10;90.10;;;;;;6146804;23;20419;-83
2021/06/18 02:47:49;;;;;;;9.57;8.37;;;27.00;90.50;;;;;;6146894;23;20431;-82
2021/06/18 02:50:42;;;;;;;10.60;9.00;;;27.00;90.60;;;;;;6119931;23;20435;-83
2021/06/18 02:53:28;;;;;;;11.13;10.10;;;27.20;90.10;;;;;;6120641;23;20395;-83
2021/06/18 02:56:27;;;;;;;11.93;9.50;;;27.10;90.00;;;;;;6120573;23;20409;-81
2021/06/18 02:58:59;;;;;;;13.03;11.90;;;27.00;90.20;;;;;;6145946;23;20419;-84
2021/06/18 03:01:30;;;;;;;11.43;10.43;;;27.10;90.30;;;;;;6147632;23;20402;-81
2021/06/18 03:04:01;;;;;;;11.70;10.50;;;27.00;90.30;;;;;;6146778;23;20525;-83
2021/06/18 03:06:31;;;;;;;11.30;10.10;;;26.80;90.70;;;;;;6146326;23;20431;-83
2021/06/18 03:09:00;;;;;;;10.40;9.57;;;26.70;91.00;;;;;;6146486;23;20431;-85
2021/06/18 03:11:29;;;;;;;12.30;11.23;;;26.60;91.10;;;;;;6146586;23;21232;-85
2021/06/18 03:13:57;;;;;;;11.90;10.90;;;26.60;91.30;;;;;;6120749;23;20421;-84
2021/06/18 03:16:28;;;;;;;11.60;10.60;;;26.70;91.30;;;;;;6146329;23;20442;-84
2021/06/18 03:18:59;;;;;;;12.47;11.37;;;26.50;91.60;;;;;;6121113;23;20466;-85
2021/06/18 03:21:29;;;;;;;12.87;11.87;;;26.40;92.10;;;;;;6146804;23;20429;-86
2021/06/18 03:23:59;;;;;;;12.13;11.00;;;26.40;92.20;;;;;;6146301;23;20418;-82
2021/06/18 03:26:27;;;;;;;12.27;10.37;;;26.20;92.90;;;;;;6146291;23;20461;-83
2021/06/18 03:28:56;;;;;;;12.93;11.47;;;26.10;93.50;;;;;;6144983;23;20425;-84
2021/06/18 03:31:24;;;;;;;12.43;11.13;;;26.30;93.10;;;;;;6147858;23;20439;-84
2021/06/18 03:33:52;;;;;;;10.40;9.20;;;26.30;93.10;;;;;;6147480;23;20952;-84
2021/06/18 03:36:25;;;;;;;11.00;9.97;;;26.10;93.60;;;;;;6122152;23;20422;-82
2021/06/18 03:38:54;;;;;;;11.70;10.70;;;25.90;94.20;;;;;;6148171;23;20400;-85
2021/06/18 03:41:22;;;;;;;11.20;10.07;;;26.00;94.00;;;;;;6122811;23;20422;-83
2021/06/18 03:43:50;;;;;;;15.87;10.97;;;26.00;94.20;;;;;;6149024;23;20414;-83
2021/06/18 03:46:18;;;;;;;11.40;10.30;;;25.90;94.20;;;;;;6122189;23;20417;-85
2021/06/18 03:48:46;;;;;;;10.40;9.53;;;25.90;94.60;;;;;;6148985;23;20410;-84
2021/06/18 03:51:13;;;;;;;12.10;10.93;;;26.00;94.40;;;;;;6122077;23;20870;-83
2021/06/18 03:53:40;;;;;;;11.83;10.73;;;26.00;94.60;;;;;;6148373;23;20441;-84
2021/06/18 03:56:10;;;;;;;12.50;11.20;;;26.00;94.90;;;;;;6121398;23;20914;-85
2021/06/18 03:58:40;;;;;;;12.03;10.93;;;26.00;94.70;;;;;;6122247;23;20407;-80
2021/06/18 04:01:11;;;;;;;11.70;10.67;;;26.20;94.40;;;;;;6121734;23;20422;-85
2021/06/18 04:03:42;;;;;;;10.87;9.97;;;25.90;94.60;;;;;;6148706;23;20437;-84
2021/06/18 04:06:09;;;;;;;13.40;12.00;;;26.20;94.50;;;;;;6123090;23;20492;-84
2021/06/18 04:08:36;;;;;;;14.53;10.40;;;26.40;94.50;;;;;;6151685;23;20407;-84
2021/06/18 04:11:08;;;;;;;13.20;11.73;;;26.20;94.60;;;;;;6151533;23;20447;-84
2021/06/18 04:13:40;;;;;;;14.23;11.03;;;26.00;95.20;;;;;;6150969;23;20422;-83
2021/06/18 04:16:11;;;;;;;13.83;10.50;;;25.90;95.30;;;;;;6125309;23;20425;-83
2021/06/18 04:18:55;;;;;;;11.27;10.13;;;25.80;95.60;;;;;;6152485;23;20413;-84
2021/06/18 04:21:24;;;;;;;19.47;12.00;;;25.90;95.70;;;;;;6125593;23;20481;-84
2021/06/18 04:23:51;;;;;;;18.90;11.30;;;25.90;95.70;;;;;;6125058;23;20466;-83
2021/06/18 04:26:23;;;;;;;12.23;10.80;;;25.80;96.10;;;;;;6133718;23;20427;-84
2021/06/18 04:28:51;;;;;;;15.00;12.50;;;25.60;96.30;;;;;;6161515;23;20383;-84
2021/06/18 04:31:17;;;;;;;12.40;11.07;;;25.60;96.50;;;;;;6161086;23;20435;-82
2021/06/18 04:33:44;;;;;;;12.43;11.20;;;25.70;96.60;;;;;;6135234;23;20442;-85
2021/06/18 04:36:14;;;;;;;12.43;11.13;;;25.80;96.40;;;;;;6136125;23;20986;-82
2021/06/18 04:38:41;;;;;;;16.87;13.87;;;25.70;96.30;;;;;;6158053;23;20874;-84
2021/06/18 04:41:08;;;;;;;14.07;11.97;;;25.60;96.60;;;;;;6125088;23;20456;-84
2021/06/18 04:43:34;;;;;;;14.27;12.77;;;25.40;97.10;;;;;;6151429;23;20936;-84
2021/06/18 04:46:01;;;;;;;19.53;12.40;;;25.40;97.40;;;;;;6148261;23;20429;-83
2021/06/18 04:48:29;;;;;;;15.17;13.07;;;25.50;97.40;;;;;;6150758;23;20411;-86
2021/06/18 04:50:56;;;;;;;17.60;11.87;;;25.40;97.40;;;;;;6150826;23;21009;-83
2021/06/18 04:53:23;;;;;;;15.00;12.00;;;25.40;97.30;;;;;;6126109;23;20413;-84
2021/06/18 04:55:50;;;;;;;15.20;11.57;;;25.50;97.40;;;;;;6150956;23;20425;-83
2021/06/18 04:58:16;;;;;;;20.07;13.30;;;25.50;97.30;;;;;;6126224;23;20436;-83
2021/06/18 05:00:43;;;;;;;12.80;11.50;;;25.60;97.30;;;;;;6125472;23;20905;-84
2021/06/18 05:03:10;;;;;;;16.33;12.37;;;26.10;96.40;;;;;;6123992;23;20502;-84
2021/06/18 05:05:37;;;;;;;13.20;11.90;;;26.10;96.10;;;;;;6124948;23;20423;-85
2021/06/18 05:08:04;;;;;;;16.23;13.23;;;26.00;96.10;;;;;;6126472;23;20516;-83
2021/06/18 05:10:31;;;;;;;14.73;13.23;;;26.00;96.20;;;;;;6155282;23;20474;-84
2021/06/18 05:12:58;;;;;;;14.23;12.57;;;25.90;96.80;;;;;;6124993;23;20442;-85
2021/06/18 05:15:25;;;;;;;13.53;12.20;;;25.80;96.70;;;;;;6126478;23;20470;-83
2021/06/18 05:17:52;;;;;;;14.77;12.87;;;25.90;96.70;;;;;;6151438;23;20491;-84
2021/06/18 05:20:19;;;;;;;12.57;11.27;;;25.90;96.40;;;;;;6153340;23;20423;-84
2021/06/18 05:22:46;;;;;;;13.33;12.00;;;25.90;96.30;;;;;;6152888;23;20411;-82
2021/06/18 05:25:14;;;;;;;12.57;11.37;;;25.70;96.70;;;;;;6123984;23;20422;-84
2021/06/18 05:27:41;;;;;;;14.77;12.40;;;25.80;97.00;;;;;;6124755;23;20515;-85
2021/06/18 05:30:09;;;;;;;13.80;12.40;;;25.90;96.70;;;;;;6124820;23;20446;-84
2021/06/18 05:32:48;;;;;;;15.10;12.90;;;25.90;96.40;;;;;;6126012;23;20457;-84
2021/06/18 05:35:15;;;;;;;13.50;12.10;;;25.90;96.70;;;;;;6150503;23;20425;-85
2021/06/18 05:37:42;;;;;;;16.43;11.90;;;25.80;96.90;;;;;;6154041;23;20486;-86
2021/06/18 05:40:09;;;;;;;14.40;12.90;;;25.70;97.30;;;;;;6124722;23;20858;-85
2021/06/18 05:42:36;;;;;;;18.47;12.67;;;25.60;97.30;;;;;;6153988;23;20449;-86
2021/06/18 05:45:04;;;;;;;13.03;11.73;;;25.60;97.40;;;;;;6153856;23;20411;-85
2021/06/18 05:47:31;;;;;;;15.00;12.47;;;25.70;97.60;;;;;;6128893;23;20426;-84
2021/06/18 05:50:03;;;;;;;18.50;11.90;;;25.70;97.40;;;;;;6154705;23;20757;-85
2021/06/18 05:52:30;;;;;;;13.20;11.37;;;25.60;97.80;;;;;;6128872;23;20407;-85
2021/06/18 05:54:57;;;;;;;15.47;12.90;;;25.90;97.40;;;;;;6126931;23;20518;-83
2021/06/18 05:57:23;;;;;;;13.43;12.13;;;26.00;97.10;;;;;;6152014;23;20435;-85
2021/06/18 05:59:50;;;;;;;13.40;11.40;;;26.00;97.00;;;;;;6124504;23;20434;-85
2021/06/18 06:02:18;;;;;;;17.20;13.13;;;26.10;96.70;;;;;;6126874;23;20417;-84
2021/06/18 06:04:45;;;;;;;15.30;12.90;;;26.20;96.60;;;;;;6149907;23;20407;-87
2021/06/18 06:07:12;;;;;;;14.83;13.20;;;26.00;96.70;;;;;;6125176;23;20435;-86
2021/06/18 06:09:39;;;;;;;15.23;13.40;;;26.20;96.90;;;;;;6150925;23;20470;-85
2021/06/18 06:12:06;;;;;;;15.03;11.93;;;26.30;96.10;;;;;;6151880;23;20442;-85
2021/06/18 06:14:33;;;;;;;14.00;11.13;;;26.30;96.10;;;;;;6153013;23;20409;-84
2021/06/18 06:17:01;;;;;;;13.87;12.40;;;26.20;96.30;;;;;;6126485;23;20503;-86
2021/06/18 06:19:27;;;;;;;14.83;12.67;;;26.20;96.40;;;;;;6153165;23;20514;-84
2021/06/18 06:21:54;;;;;;;12.53;11.33;;;26.30;96.80;;;;;;6154439;23;20757;-85
2021/06/18 06:24:21;;;;;;;14.40;12.77;;;26.30;96.50;;;;;;6152371;23;20415;-84
2021/06/18 06:26:50;;;;;;;14.03;12.63;;;26.30;96.50;;;;;;6152332;23;20419;-84
2021/06/18 06:29:17;;;;;;;14.70;13.20;;;26.30;96.70;;;;;;6153486;23;20414;-85
2021/06/18 06:32:30;;;;;;;14.13;12.73;;;26.20;96.70;;;;;;6161616;23;20423;-85
2021/06/18 06:34:58;;;;;;;14.17;12.80;;;26.50;96.40;;;;;;6127692;23;20434;-85
2021/06/18 06:37:24;;;;;;;14.37;12.70;;;26.60;96.20;;;;;;6127899;23;20451;-85
2021/06/18 06:39:52;;;;;;;15.63;14.03;;;26.70;95.90;;;;;;6153019;23;20414;-84
2021/06/18 06:42:19;;;;;;;15.27;13.73;;;26.80;95.70;;;;;;6126660;23;20433;-84
2021/06/18 06:44:46;;;;;;;13.63;12.33;;;26.80;95.60;;;;;;6153026;23;20419;-84
2021/06/18 06:47:22;;;;;;;15.77;13.90;;;27.00;95.40;;;;;;6152530;23;20438;-85
2021/06/18 06:49:49;;;;;;;13.60;12.20;;;27.10;95.40;;;;;;6153928;23;20414;-83
2021/06/18 06:52:16;;;;;;;14.10;12.80;;;27.40;94.40;;;;;;6153467;23;20438;-84
2021/06/18 06:54:45;;;;;;;14.00;12.57;;;27.60;93.50;;;;;;6154501;23;20395;-84
2021/06/18 06:57:19;;;;;;;16.00;12.17;;;27.60;93.70;;;;;;6154345;23;20468;-85
2021/06/18 06:59:51;;;;;;;16.10;11.87;;;27.70;93.30;;;;;;6138694;23;21001;-86
2021/06/18 07:02:19;;;;;;;13.80;11.37;;;27.80;93.00;;;;;;6143754;23;20403;-83
2021/06/18 07:04:45;;;;;;;14.87;11.10;;;28.00;92.40;;;;;;6144984;23;20686;-85
2021/06/18 07:07:34;;;;;;;15.90;10.03;;;28.40;91.50;;;;;;6168616;23;20441;-86
2021/06/18 07:10:57;;;;;;;13.53;10.17;;;28.60;90.80;;;;;;6137159;23;20418;-84
2021/06/18 07:13:41;;;;;;;9.90;9.00;;;28.60;90.40;;;;;;6124361;23;20414;-83
2021/06/18 07:16:09;;;;;;;13.30;10.40;;;28.80;90.20;;;;;;6156314;23;20481;-84
2021/06/18 07:18:49;;;;;;;;;;;;;;;;;;;;;
2021/06/18 07:21:22;;;;;;;12.10;9.40;;;29.20;88.80;;;;;;6156134;23;20422;-85
2021/06/18 07:23:49;;;;;;;11.23;9.87;;;29.30;87.50;;;;;;6154792;23;20421;-84
2021/06/18 07:26:23;;;;;;;10.97;9.70;;;29.20;87.60;;;;;;6153162;23;20406;-85
2021/06/18 07:28:50;;;;;;;11.03;9.87;;;28.90;88.50;;;;;;6128102;23;20795;-84
2021/06/18 07:31:17;;;;;;;12.73;11.40;;;29.10;88.90;;;;;;6129371;23;20450;-85
2021/06/18 07:33:43;;;;;;;11.93;8.90;;;29.10;87.40;;;;;;6128362;23;20414;-86
2021/06/18 07:36:10;;;;;;;12.63;9.90;;;29.30;86.30;;;;;;6157033;23;20402;-85
2021/06/18 07:38:37;;;;;;;13.60;9.17;;;29.20;86.90;;;;;;6156164;23;20407;-85
2021/06/18 07:41:07;;;;;;;10.77;8.67;;;29.20;86.80;;;;;;6156400;23;20411;-84
2021/06/18 07:43:34;;;;;;;9.77;8.70;;;29.20;85.90;;;;;;6157713;23;20479;-85
2021/06/18 07:46:01;;;;;;;13.83;8.80;;;28.90;86.30;;;;;;6159903;23;20414;-83
2021/06/18 07:48:37;;;;;;;10.20;9.30;;;29.00;87.00;;;;;;6162349;23;20478;-84
2021/06/18 07:51:03;;;;;;;9.60;8.67;;;29.10;85.90;;;;;;6161810;23;20447;-84
2021/06/18 07:53:30;;;;;;;11.50;10.30;;;28.80;86.40;;;;;;6160536;23;20518;-86
2021/06/18 07:55:57;;;;;;;9.73;8.10;;;29.00;86.80;;;;;;6134764;23;20419;-86
2021/06/18 07:58:27;;;;;;;11.70;8.33;;;28.90;85.80;;;;;;6159336;23;20430;-84
2021/06/18 08:00:54;;;;;;;10.20;9.13;;;28.70;86.40;;;;;;6135178;23;20501;-84
2021/06/18 08:03:22;;;;;;;9.47;8.10;;;28.60;86.50;;;;;;6138731;23;20410;-82
2021/06/18 08:05:51;;;;;;;10.07;8.00;;;28.50;86.70;;;;;;6164212;23;20387;-82
2021/06/18 08:08:19;;;;;;;12.80;10.80;;;28.40;87.00;;;;;;6166100;23;20419;-84
2021/06/18 08:10:50;;;;;;;11.13;9.33;;;28.50;87.40;;;;;;6166927;23;20419;-83
2021/06/18 08:13:16;;;;;;;10.53;8.10;;;28.90;87.50;;;;;;6167955;23;20410;-85
2021/06/18 08:15:43;;;;;;;12.57;7.80;;;28.60;86.70;;;;;;6169382;23;20434;-84
2021/06/18 08:18:10;;;;;;;16.63;8.40;;;28.50;85.90;;;;;;6173396;23;20458;-84
2021/06/18 08:20:37;;;;;;;8.37;7.50;;;28.60;86.70;;;;;;6147348;23;20462;-84
2021/06/18 08:23:10;;;;;;;9.30;7.73;;;28.50;85.30;;;;;;6146729;23;20430;-86
2021/06/18 08:25:37;;;;;;;10.40;7.27;;;28.40;85.30;;;;;;6172665;23;20443;-85
2021/06/18 08:28:07;;;;;;;7.23;6.63;;;28.30;84.80;;;;;;6151243;23;20458;-86
2021/06/18 08:30:36;;;;;;;6.40;5.90;;;28.30;85.00;;;;;;6177045;23;20423;-84
2021/06/18 08:33:08;;;;;;;8.53;6.43;;;28.30;84.20;;;;;;6172305;23;20421;-84
2021/06/18 08:35:38;;;;;;;12.20;7.10;;;28.40;83.30;;;;;;6147245;23;20424;-86
2021/06/18 08:38:05;;;;;;;17.30;8.33;;;28.90;82.20;;;;;;6174751;23;21020;-85
2021/06/18 08:40:34;;;;;;;9.60;8.63;;;29.10;82.00;;;;;;6151936;23;20433;-84
2021/06/18 08:43:03;;;;;;;9.90;7.70;;;29.20;82.90;;;;;;6170310;23;20582;-85
2021/06/18 08:45:31;;;;;;;11.70;8.53;;;29.60;83.80;;;;;;6171106;23;20419;-84
2021/06/18 08:47:58;;;;;;;8.60;7.80;;;29.70;83.10;;;;;;6144590;23;20446;-86
2021/06/18 08:50:26;;;;;;;8.93;7.87;;;29.60;84.00;;;;;;6142985;23;20414;-84
2021/06/18 08:52:55;;;;;;;11.30;9.63;;;29.80;83.00;;;;;;6170252;23;20442;-84
2021/06/18 08:55:26;;;;;;;11.90;9.47;;;29.80;82.00;;;;;;6165037;23;20434;-85
2021/06/18 08:57:55;;;;;;;16.27;14.67;;;29.80;81.80;;;;;;6165798;23;20469;-85
2021/06/18 09:00:33;;;;;;;8.90;8.00;;;29.70;82.00;;;;;;6167233;23;20409;-84
2021/06/18 09:03:46;;;;;;;8.00;7.20;;;29.70;81.70;;;;;;6172354;23;20411;-82
2021/06/18 09:06:21;;;;;;;11.40;7.63;;;29.60;81.30;;;;;;6146965;23;20415;-86
2021/06/18 09:09:31;;;;;;;18.30;8.37;;;29.40;82.10;;;;;;6027742;23;20382;-83
2021/06/18 09:12:21;;;;;;;10.57;8.20;;;29.60;82.30;;;;;;6138974;23;20442;-82
2021/06/18 09:15:31;;;;;;;9.00;8.10;;;30.00;80.50;;;;;;6143980;23;20434;-85
2021/06/18 09:18:33;;;;;;;9.20;7.30;;;30.80;78.30;;;;;;6163956;23;20445;-81
2021/06/18 09:21:30;;;;;;;8.37;7.57;;;31.40;74.30;;;;;;6134573;23;20539;-83
2021/06/18 09:24:55;;;;;;;9.83;7.57;;;31.20;73.20;;;;;;6138499;23;20422;-85
2021/06/18 09:44:27;;;;;;;;;;;;;;;;;;;;;
2021/06/18 09:55:55;;;;;;;9.83;8.03;;;31.70;71.60;;;;;;6010971;23;20429;-86
2021/06/18 10:09:00;;;;;;;8.47;6.87;;;34.30;59.70;;;;;;6148584;23;21266;-85
2021/06/18 10:11:58;;;;;;;10.70;7.43;;;34.40;60.50;;;;;;6147563;23;20530;-84
2021/06/18 10:14:43;;;;;;;7.93;7.10;;;34.20;58.80;;;;;;6146075;23;20414;-84
2021/06/18 10:17:13;;;;;;;13.10;7.17;;;34.00;59.20;;;;;;6144037;23;20439;-85
2021/06/18 10:20:17;;;;;;;10.73;6.83;;;34.20;58.40;;;;;;6146066;23;20415;-86
2021/06/18 10:23:02;;;;;;;6.43;5.80;;;34.90;56.10;;;;;;6122796;23;20418;-85
2021/06/18 10:26:37;;;;;;;;;;;;;;;;;;;;;
2021/06/18 10:29:56;;;;;;;6.70;6.00;;;35.00;54.50;;;;;;6078973;23;20481;-85
2021/06/18 10:32:57;;;;;;;8.40;6.77;;;35.00;55.10;;;;;;6142203;23;20446;-86
2021/06/18 10:39:37;;;;;;;;;;;;;;;;;;;;;
2021/06/18 10:42:23;;;;;;;9.13;7.60;;;33.50;59.00;;;;;;6153868;23;20530;-86
2021/06/18 10:45:42;;;;;;;9.23;6.30;;;33.10;59.00;;;;;;6111826;23;20470;-85
2021/06/18 10:48:18;;;;;;;9.90;6.27;;;32.70;59.30;;;;;;6117143;23;20529;-85
2021/06/18 10:51:49;;;;;;;8.47;6.37;;;33.40;57.20;;;;;;6144290;23;20443;-84
2021/06/18 10:55:01;;;;;;;9.43;5.90;;;33.70;56.10;;;;;;6145260;23;20400;-85
2021/06/18 11:00:44;;;;;;;7.67;6.00;;;34.40;53.70;;;;;;6141469;23;20442;-84
2021/06/18 11:10:44;;;;;;;6.53;4.73;;;35.50;50.30;;;;;;6176657;23;20816;-84
2021/06/18 11:13:30;;;;;;;7.33;5.37;;;35.90;49.30;;;;;;6162840;23;20436;-85
2021/06/18 11:16:46;;;;;;;7.17;4.83;;;35.20;49.40;;;;;;6177936;23;20466;-85
2021/06/18 11:19:40;;;;;;;;;;;;;;;;;;;;;
2021/06/18 11:22:58;;;;;;;7.03;5.00;;;36.40;47.60;;;;;;6119316;23;20406;-86
2021/06/18 11:26:28;;;;;;;7.20;4.10;;;36.80;45.30;;;;;;6122219;23;20427;-84
2021/06/18 11:29:04;;;;;;;5.83;4.40;;;37.00;41.60;;;;;;6146831;23;20419;-85
2021/06/18 11:32:41;;;;;;;6.17;3.40;;;36.70;42.90;;;;;;6121038;23;20450;-85
2021/06/18 11:35:37;;;;;;;5.47;2.97;;;36.70;39.90;;;;;;6108682;23;20423;-85
2021/06/18 11:38:26;;;;;;;5.03;3.47;;;36.10;39.60;;;;;;6107503;23;21011;-83
2021/06/18 11:44:04;;;;;;;5.40;3.30;;;36.30;40.20;;;;;;6146143;23;20442;-85
2021/06/18 11:47:07;;;;;;;8.87;3.67;;;36.80;39.90;;;;;;6115440;23;20427;-85
2021/06/18 11:49:45;;;;;;;8.43;4.00;;;36.20;40.60;;;;;;6117302;23;20407;-83
2021/06/18 11:52:32;;;;;;;4.53;4.13;;;37.00;41.20;;;;;;6116433;23;20809;-85
2021/06/18 11:58:54;;;;;;;9.47;3.63;;;37.40;39.80;;;;;;6052852;23;20532;-87
2021/06/18 12:02:27;;;;;;;5.53;2.77;;;37.10;35.60;;;;;;6036375;23;20408;-85
2021/06/18 12:05:43;;;;;;;3.67;2.70;;;35.70;35.80;;;;;;6068264;23;20431;-82
2021/06/18 12:17:00;;;;;;;5.30;3.60;;;37.10;36.10;;;;;;6111330;23;20418;-84
2021/06/18 12:20:18;;;;;;;5.30;3.57;;;36.10;37.60;;;;;;6100192;23;20451;-83
2021/06/18 12:23:18;;;;;;;4.40;3.30;;;36.40;37.20;;;;;;6094760;23;20415;-84
2021/06/18 12:26:36;;;;;;;7.50;3.63;;;36.80;36.90;;;;;;6090342;23;20437;-83
2021/06/18 12:30:05;;;;;;;5.93;3.47;;;37.20;36.90;;;;;;6109548;23;20415;-82
2021/06/18 12:33:06;;;;;;;5.37;3.90;;;37.10;37.10;;;;;;5999516;23;20533;-83
2021/06/18 12:35:45;;;;;;;4.97;4.47;;;37.30;37.20;;;;;;5975241;23;20491;-83
2021/06/18 12:38:39;;;;;;;6.37;3.83;;;37.30;37.00;;;;;;5996568;23;20478;-83
2021/06/18 12:41:31;;;;;;;5.63;3.37;;;37.30;36.80;;;;;;5974049;23;20422;-84
2021/06/18 12:44:05;;;;;;;5.70;3.90;;;36.90;36.30;;;;;;5974560;23;20419;-85
2021/06/18 12:46:45;;;;;;;5.33;3.60;;;36.90;37.10;;;;;;5975147;23;20499;-85
2021/06/18 12:53:44;;;;;;;4.70;4.13;;;36.90;37.90;;;;;;5968578;24;20486;-83
2021/06/18 12:56:24;;;;;;;9.73;4.00;;;37.50;36.50;;;;;;5972156;23;20423;-83
2021/06/18 13:03:57;;;;;;;7.93;3.83;;;36.00;38.20;;;;;;6117002;23;21004;-83
2021/06/18 13:06:58;;;;;;;5.53;4.40;;;35.90;38.90;;;;;;6116469;23;20407;-83
2021/06/18 13:09:41;;;;;;;8.70;3.50;;;36.50;37.40;;;;;;6110024;23;20500;-85
2021/06/18 13:12:21;;;;;;;6.40;3.43;;;36.50;37.20;;;;;;6090089;23;20449;-84
2021/06/18 13:15:01;;;;;;;6.73;3.63;;;36.20;37.30;;;;;;6092024;23;20411;-84
2021/06/18 13:18:22;;;;;;;6.03;3.47;;;36.00;38.20;;;;;;6117091;23;20411;-86
2021/06/18 13:21:17;;;;;;;3.60;3.30;;;36.40;37.40;;;;;;6099840;23;20422;-84
2021/06/18 13:38:19;;;;;;;6.17;4.00;;;35.90;38.30;;;;;;6115222;23;20462;-83
2021/06/18 13:41:18;;;;;;;7.23;4.37;;;35.50;39.70;;;;;;6126186;23;20403;-82
2021/06/18 13:44:29;;;;;;;6.57;4.20;;;35.10;40.80;;;;;;6111828;23;20430;-81
2021/06/18 13:47:51;;;;;;;;;;;;;;;;;;;;;
2021/06/18 13:51:01;;;;;;;6.20;3.70;;;35.20;41.00;;;;;;5899129;23;20502;-83
2021/06/18 13:54:15;;;;;;;5.03;4.00;;;35.20;38.80;;;;;;6006842;23;20449;-82
2021/06/18 13:57:27;;;;;;;7.97;4.20;;;35.10;39.10;;;;;;6029776;23;20445;-82
2021/06/18 14:00:41;;;;;;;4.83;4.13;;;35.00;39.70;;;;;;6000035;23;20493;-83
2021/06/18 14:03:50;;;;;;;7.27;4.10;;;35.00;39.70;;;;;;6008801;23;20447;-83
2021/06/18 14:06:20;;;;;;;5.33;3.87;;;35.10;40.00;;;;;;5969272;23;20494;-85
2021/06/18 14:09:30;;;;;;;5.80;4.00;;;35.00;39.70;;;;;;6014163;23;20415;-82
2021/06/18 14:12:26;;;;;;;5.23;3.40;;;35.00;38.60;;;;;;6074260;23;20455;-84
2021/06/18 14:15:18;;;;;;;8.27;3.40;;;35.10;38.40;;;;;;6149697;23;20403;-83
2021/06/18 14:18:14;;;;;;;4.10;3.53;;;35.00;38.80;;;;;;6147417;23;20406;-83
2021/06/18 14:24:09;;;;;;;6.60;3.43;;;34.90;37.90;;;;;;6149128;23;20407;-82
2021/06/18 14:27:03;;;;;;;6.03;3.97;;;35.00;37.90;;;;;;6149053;23;20455;-83
2021/06/18 14:33:21;;;;;;;4.50;3.57;;;35.30;37.40;;;;;;6085164;23;20967;-83
2021/06/18 14:36:05;;;;;;;5.87;4.27;;;35.40;37.70;;;;;;6054576;23;20422;-84
2021/06/18 14:39:00;;;;;;;7.53;4.40;;;35.40;37.90;;;;;;6087685;23;21426;-85
2021/06/18 14:41:32;;;;;;;4.73;4.17;;;35.20;38.50;;;;;;6086601;23;20409;-84
2021/06/18 14:44:04;;;;;;;5.10;4.00;;;35.00;37.40;;;;;;6087152;23;21021;-82
2021/06/18 14:46:40;;;;;;;5.53;3.63;;;34.70;38.10;;;;;;6087901;23;20429;-83
2021/06/18 14:53:25;;;;;;;4.47;3.37;;;34.70;37.40;;;;;;5943282;24;20491;-84
2021/06/18 14:56:51;;;;;;;6.23;3.63;;;34.70;38.10;;;;;;5977068;24;20515;-84
2021/06/18 14:59:27;;;;;;;4.10;3.60;;;34.50;38.20;;;;;;5962738;24;20420;-82
2021/06/18 15:06:34;;;;;;;;;;;;;;;;;;;;;
2021/06/18 15:09:20;;;;;;;7.63;3.87;;;34.70;39.50;;;;;;5895928;24;20403;-82
2021/06/18 15:12:25;;;;;;;9.63;3.70;;;34.70;39.70;;;;;;5953356;24;20453;-81
2021/06/18 15:22:15;;;;;;;5.93;3.83;;;34.60;38.80;;;;;;5897798;24;20411;-80
2021/06/18 15:25:23;;;;;;;6.20;3.47;;;34.70;39.30;;;;;;5897980;24;20403;-82
2021/06/18 15:27:55;;;;;;;10.30;5.10;;;34.70;39.50;;;;;;5980156;24;20528;-83
2021/06/18 15:33:48;;;;;;;4.70;3.80;;;34.40;40.10;;;;;;5979827;24;20452;-81
2021/06/18 15:37:16;;;;;;;7.77;3.93;;;34.50;39.90;;;;;;5957963;24;20436;-82
2021/06/18 15:40:34;;;;;;;10.37;4.23;;;34.50;40.00;;;;;;5979271;24;20515;-82
2021/06/18 15:44:18;;;;;;;7.83;4.23;;;34.40;40.50;;;;;;5926161;24;20602;-83